createdAt,value
2023-02-24T00:01:19.278Z,12.52
2023-02-24T00:06:22.670Z,10.98
2023-02-24T00:11:26.247Z,10.88
2023-02-24T00:16:31.201Z,11.65
2023-02-24T00:21:34.954Z,12.70
2023-02-24T00:26:39.082Z,12.68
2023-02-24T00:31:44.065Z,12.07
2023-02-24T00:36:47.486Z,11.65
2023-02-24T00:41:51.256Z,13.18
2023-02-24T00:46:56.000Z,13.98
2023-02-24T00:51:59.837Z,12.18
2023-02-24T00:57:04.077Z,14.50
2023-02-24T01:02:08.906Z,13.48
2023-02-24T01:07:13.254Z,12.52
2023-02-24T01:12:38.697Z,13.10
2023-02-24T01:17:43.869Z,10.77
2023-02-24T01:22:48.936Z,13.10
2023-02-24T01:27:54.037Z,11.15
2023-02-24T01:32:58.887Z,12.27
2023-02-24T01:38:05.837Z,12.18
2023-02-24T01:43:11.867Z,11.52
2023-02-24T01:48:17.995Z,14.27
2023-02-24T01:53:21.571Z,11.80
2023-02-24T01:58:28.205Z,13.35
2023-02-24T02:03:36.333Z,12.85
2023-02-24T02:08:43.000Z,12.02
2023-02-24T02:13:50.344Z,11.88
2023-02-24T02:19:06.900Z,14.00
2023-02-24T02:24:34.073Z,14.77
2023-02-24T02:30:09.354Z,16.88
2023-02-24T02:35:19.162Z,15.07
2023-02-24T02:40:27.680Z,15.50
2023-02-24T02:45:37.629Z,14.50
2023-02-24T02:50:47.581Z,14.40
2023-02-24T02:55:55.963Z,13.30
2023-02-24T03:01:02.934Z,11.07
2023-02-24T03:06:14.467Z,14.48
2023-02-24T03:11:20.577Z,15.00
2023-02-24T03:16:26.653Z,15.10
2023-02-24T03:21:34.869Z,16.30
2023-02-24T03:26:44.246Z,14.15
2023-02-24T03:31:58.609Z,15.70
2023-02-24T03:37:03.575Z,15.45
2023-02-24T03:42:14.095Z,15.45
2023-02-24T03:47:20.490Z,13.50
2023-02-24T03:52:33.625Z,14.15
2023-02-24T03:57:55.955Z,15.85
2023-02-24T04:03:15.373Z,12.95
2023-02-24T04:08:24.186Z,16.17
2023-02-24T04:13:35.879Z,15.63
2023-02-24T04:18:51.078Z,16.35
2023-02-24T04:23:58.414Z,14.85
2023-02-24T04:29:03.024Z,15.10
2023-02-24T04:34:09.868Z,13.93
2023-02-24T04:39:18.974Z,14.23
2023-02-24T04:44:28.301Z,12.57
2023-02-24T04:49:31.635Z,13.73
2023-02-24T04:54:36.647Z,16.00
2023-02-24T04:59:40.779Z,13.55
2023-02-24T05:04:44.695Z,15.25
2023-02-24T05:09:49.821Z,13.43
2023-02-24T05:14:54.779Z,12.02
2023-02-24T05:20:15.296Z,12.63
2023-02-24T05:25:25.367Z,15.23
2023-02-24T05:30:29.636Z,16.13
2023-02-24T05:35:33.365Z,12.18
2023-02-24T05:40:45.420Z,14.35
2023-02-24T05:45:49.418Z,13.65
2023-02-24T05:50:55.158Z,14.13
2023-02-24T05:56:06.014Z,11.35
2023-02-24T06:01:16.411Z,15.85
2023-02-24T06:06:19.799Z,15.10
2023-02-24T06:11:24.803Z,13.93
2023-02-24T06:16:28.378Z,18.27
2023-02-24T06:21:31.800Z,12.75
2023-02-24T06:26:36.994Z,12.00
2023-02-24T06:31:41.828Z,13.40
2023-02-24T06:36:47.085Z,16.00
2023-02-24T06:41:52.988Z,15.68
2023-02-24T06:46:56.448Z,16.08
2023-02-24T06:52:00.203Z,15.48
2023-02-24T06:57:09.927Z,18.25
2023-02-24T07:02:13.315Z,16.42
2023-02-24T07:07:17.725Z,16.73
2023-02-24T07:12:22.954Z,11.48
2023-02-24T07:17:26.526Z,14.30
2023-02-24T07:22:29.979Z,14.93
2023-02-24T07:27:34.788Z,12.27
2023-02-24T07:32:40.659Z,15.32
2023-02-24T07:37:43.982Z,15.70
2023-02-24T07:42:48.901Z,11.93
2023-02-24T07:47:52.356Z,13.55
2023-02-24T07:52:55.781Z,12.98
2023-02-24T07:58:01.666Z,11.68
2023-02-24T08:03:05.800Z,13.50
2023-02-24T08:08:09.244Z,11.68
2023-02-24T08:13:13.987Z,11.43
2023-02-24T08:18:20.112Z,15.70
2023-02-24T08:23:24.368Z,10.80
2023-02-24T08:28:29.175Z,11.77
2023-02-24T08:33:32.992Z,11.77
2023-02-24T08:38:52.299Z,13.50
2023-02-24T08:43:57.191Z,11.57
2023-02-24T08:49:01.609Z,10.38
2023-02-24T08:54:11.199Z,10.30
2023-02-24T08:59:38.018Z,9.88
2023-02-24T09:04:44.942Z,9.50
2023-02-24T09:09:48.872Z,9.07
2023-02-24T09:14:56.733Z,9.98
2023-02-24T09:20:31.927Z,13.10
2023-02-24T09:25:44.886Z,11.20
2023-02-24T09:30:53.589Z,12.25
2023-02-24T09:36:10.080Z,8.32
2023-02-24T09:41:32.044Z,7.03
2023-02-24T09:46:54.229Z,8.93
2023-02-24T09:52:09.041Z,9.98
2023-02-24T09:57:18.322Z,9.18
2023-02-24T10:02:39.609Z,10.13
2023-02-24T10:07:45.214Z,9.25
2023-02-24T10:12:53.576Z,10.77
2023-02-24T10:18:05.096Z,8.07
2023-02-24T10:23:16.024Z,7.95
2023-02-24T10:28:35.816Z,7.07
2023-02-24T10:33:48.732Z,5.18
2023-02-24T10:38:56.076Z,5.75
2023-02-24T10:44:00.369Z,4.35
2023-02-24T10:49:10.064Z,5.50
2023-02-24T10:54:34.419Z,5.53
2023-02-24T11:00:05.363Z,7.30
2023-02-24T11:05:28.552Z,5.68
2023-02-24T11:10:42.866Z,7.60
2023-02-24T11:16:06.680Z,4.18
2023-02-24T11:21:14.484Z,5.07
2023-02-24T11:26:20.728Z,4.88
2023-02-24T11:31:40.482Z,5.65
2023-02-24T11:36:55.068Z,2.92
2023-02-24T11:42:01.798Z,4.80
2023-02-24T11:47:12.171Z,5.97
2023-02-24T11:52:21.538Z,5.68
2023-02-24T11:57:31.972Z,6.90
2023-02-24T12:02:43.723Z,3.72
2023-02-24T12:07:52.215Z,4.03
2023-02-24T12:13:05.249Z,3.25
2023-02-24T12:18:17.807Z,3.88
2023-02-24T12:23:27.217Z,3.50
2023-02-24T12:28:48.820Z,2.58
2023-02-24T12:34:04.114Z,3.85
2023-02-24T12:39:15.974Z,3.58
2023-02-24T12:44:28.121Z,4.07
2023-02-24T12:49:47.299Z,3.03
2023-02-24T12:54:59.482Z,6.82
2023-02-24T13:00:11.792Z,2.95
2023-02-24T13:05:22.185Z,6.32
2023-02-24T13:10:37.722Z,2.30
2023-02-24T13:15:51.921Z,3.15
2023-02-24T13:21:07.586Z,5.75
2023-02-24T13:26:12.410Z,3.30
2023-02-24T13:31:15.989Z,1.77
2023-02-24T13:36:21.978Z,3.38
2023-02-24T13:41:41.827Z,2.28
2023-02-24T13:46:59.016Z,2.95
2023-02-24T13:52:05.078Z,3.25
2023-02-24T13:57:30.148Z,2.05
2023-02-24T14:02:42.889Z,3.22
2023-02-24T14:07:49.487Z,4.68
2023-02-24T14:13:05.019Z,3.92
2023-02-24T14:18:18.605Z,2.58
2023-02-24T14:23:25.053Z,1.40
2023-02-24T14:28:32.595Z,5.45
2023-02-24T14:33:38.139Z,4.00
2023-02-24T14:38:43.327Z,2.90
2023-02-24T14:43:47.995Z,4.68
2023-02-24T14:48:55.376Z,3.47
2023-02-24T14:54:06.076Z,2.70
2023-02-24T14:59:59.715Z,3.08
2023-02-24T15:05:04.923Z,4.03
2023-02-24T15:10:18.659Z,2.33
2023-02-24T15:15:24.389Z,2.40
2023-02-24T15:20:34.024Z,3.83
2023-02-24T15:25:44.834Z,4.15
2023-02-24T15:31:00.406Z,4.22
2023-02-24T15:36:11.238Z,3.85
2023-02-24T15:41:16.242Z,4.28
2023-02-24T15:46:26.281Z,2.63
2023-02-24T15:51:37.094Z,3.63
2023-02-24T15:56:42.669Z,3.33
2023-02-24T16:01:46.994Z,3.53
2023-02-24T16:06:55.432Z,3.45
2023-02-24T16:11:59.259Z,4.03
2023-02-24T16:17:09.098Z,2.25
2023-02-24T16:22:13.863Z,3.47
2023-02-24T16:27:19.217Z,3.15
2023-02-24T16:32:27.141Z,4.05
2023-02-24T16:37:32.216Z,3.72
2023-02-24T16:42:36.101Z,4.05
2023-02-24T16:47:41.131Z,4.35
2023-02-24T16:52:46.654Z,2.28
2023-02-24T16:57:50.770Z,4.03
2023-02-24T17:02:55.472Z,5.45
2023-02-24T17:08:00.576Z,3.78
2023-02-24T17:13:04.136Z,4.85
2023-02-24T17:18:08.729Z,4.70
2023-02-24T17:23:15.778Z,4.18
2023-02-24T17:28:19.975Z,2.67
2023-02-24T17:33:24.317Z,4.53
2023-02-24T17:38:31.008Z,2.92
2023-02-24T17:43:35.331Z,4.60
2023-02-24T17:48:39.200Z,4.53
2023-02-24T17:53:44.773Z,6.90
2023-02-24T17:58:49.387Z,4.07
2023-02-24T18:03:53.984Z,4.68
2023-02-24T18:08:59.332Z,4.03
2023-02-24T18:14:05.412Z,3.53
2023-02-24T18:19:11.437Z,4.00
2023-02-24T18:24:19.221Z,3.92
2023-02-24T18:29:26.633Z,3.70
2023-02-24T18:34:31.186Z,5.45
2023-02-24T18:39:38.043Z,4.85
2023-02-24T18:44:42.798Z,4.80
2023-02-24T18:49:48.516Z,3.22
2023-02-24T18:54:56.146Z,3.53
2023-02-24T19:00:01.175Z,4.50
2023-02-24T19:05:06.548Z,5.20
2023-02-24T19:10:14.500Z,5.80
2023-02-24T19:15:19.916Z,6.38
2023-02-24T19:20:24.767Z,5.75
2023-02-24T19:25:31.207Z,7.55
2023-02-24T19:30:36.578Z,6.38
2023-02-24T19:35:43.055Z,7.43
2023-02-24T19:40:52.324Z,6.32
2023-02-24T19:45:57.008Z,5.95
2023-02-24T19:51:05.601Z,6.65
2023-02-24T19:56:12.579Z,4.68
2023-02-24T20:01:19.098Z,4.75
2023-02-24T20:06:29.810Z,5.05
2023-02-24T20:11:40.575Z,5.03
2023-02-24T20:16:45.903Z,5.78
2023-02-24T20:21:50.731Z,7.47
2023-02-24T20:26:57.221Z,4.85
2023-02-24T20:32:01.917Z,3.72
2023-02-24T20:37:07.152Z,4.10
2023-02-24T20:42:15.197Z,4.90
2023-02-24T20:47:19.967Z,3.88
2023-02-24T20:52:24.894Z,5.32
2023-02-24T20:57:31.378Z,5.28
2023-02-24T21:02:35.594Z,1.98
2023-02-24T21:07:42.193Z,5.20
2023-02-24T21:12:50.067Z,2.63
2023-02-24T21:17:54.488Z,3.78
2023-02-24T21:23:01.592Z,3.28
2023-02-24T21:28:07.516Z,1.60
2023-02-24T21:33:11.652Z,2.67
2023-02-24T21:38:15.299Z,2.90
2023-02-24T21:43:21.802Z,2.67
2023-02-24T21:48:25.616Z,2.95
2023-02-24T21:53:30.097Z,3.55
2023-02-24T21:58:34.784Z,5.07
2023-02-24T22:03:38.274Z,5.93
2023-02-24T22:08:45.601Z,5.05
2023-02-24T22:13:50.973Z,1.83
2023-02-24T22:18:55.771Z,7.95
2023-02-24T22:24:01.128Z,3.47
2023-02-24T22:29:06.092Z,3.85
2023-02-24T22:34:09.460Z,2.95
2023-02-24T22:39:16.692Z,3.00
2023-02-24T22:44:21.436Z,2.83
2023-02-24T22:49:24.709Z,1.55
2023-02-24T22:54:28.007Z,3.83
2023-02-24T22:59:33.038Z,2.63
2023-02-24T23:04:36.795Z,2.13
2023-02-24T23:09:40.179Z,4.22
2023-02-24T23:14:44.907Z,2.83
2023-02-24T23:19:48.188Z,6.30
2023-02-24T23:24:52.025Z,4.35
2023-02-24T23:29:56.751Z,1.55
2023-02-24T23:35:00.146Z,1.98
2023-02-24T23:40:08.058Z,1.40
2023-02-24T23:45:13.031Z,2.33
2023-02-24T23:50:16.434Z,3.03
2023-02-24T23:55:20.117Z,3.28
